Normandy — WDI3305 — position and weather

sailwx.info

Track history (hours):
 
Tides and Currents Weather Stations Pressure Air Temp Water Temp Dewpoint Dewpoint Depression Visibility Wind Speed Wind Dir Waves Ship Positions

Normandy

Owner: Metropolitan Marine Transportation, Inc., Staten Island, NY. More information available from US FCC via Universal Licensing System and Coast Guard Vessel Documentation Center.

Last reported at 2018-Feb-21 22:30 UTC. Time now 2018-Feb-21 22:54 UTC.
Position N 40°36' W 074°12'.

Type: Towing. MMSI: 367686940.

Date/timePositionNaut miles runAvg speedWind from/ knotsBaromVisibWave heightAir tempDewpointWater temp
2018-Feb-21 22:30N 40°36' W 074°12'0 0.0
2018-Feb-21 22:00N 40°36' W 074°12'2 3.2
2018-Feb-21 21:30N 40°34' W 074°13'2 2.4
2018-Feb-21 20:30N 40°33' W 074°15'0 0.0
2018-Feb-21 19:59N 40°33' W 074°15'2 4.7
2018-Feb-21 19:30N 40°34' W 074°13'3 4.6
2018-Feb-21 18:55N 40°37' W 074°12'0 0.0
2018-Feb-21 18:29N 40°37' W 074°12'3 6.1
2018-Feb-21 18:00N 40°39' W 074°10'3 5.4
2018-Feb-21 17:30N 40°39' W 074°06'1 1.9
2018-Feb-21 17:00N 40°39' W 074°08'0 0.4
2018-Feb-21 16:30N 40°38' W 074°08'0 0.0
2018-Feb-21 16:00N 40°38' W 074°08'0 0.0
2018-Feb-21 15:30N 40°38' W 074°08'0 0.0
2018-Feb-21 14:58N 40°38' W 074°08'0 0.0
2018-Feb-21 14:29N 40°38' W 074°08'0 0.0
2018-Feb-21 13:59N 40°38' W 074°08'0 0.0
2018-Feb-21 13:29N 40°38' W 074°08'0 0.0
2018-Feb-21 13:00N 40°38' W 074°08'0 0.0
2018-Feb-21 12:29N 40°38' W 074°08'0 0.0
2018-Feb-21 12:00N 40°38' W 074°08'0 0.0
2018-Feb-21 11:30N 40°38' W 074°08'0 0.0
2018-Feb-21 11:00N 40°38' W 074°08'0 0.0
2018-Feb-21 10:30N 40°38' W 074°08'0 0.0
2018-Feb-21 10:01N 40°38' W 074°08'0 0.0
2018-Feb-21 09:30N 40°38' W 074°08'0 0.0
2018-Feb-21 08:58N 40°38' W 074°08'0 0.0
2018-Feb-21 08:30N 40°38' W 074°08'0 0.0
2018-Feb-21 07:59N 40°38' W 074°08'0 0.0
2018-Feb-21 07:29N 40°38' W 074°08'0 0.0
2018-Feb-21 06:58N 40°38' W 074°08'0 0.0
2018-Feb-21 06:28N 40°38' W 074°08'0 0.0
2018-Feb-21 06:00N 40°38' W 074°08'0 0.0
2018-Feb-21 05:30N 40°38' W 074°08'2 3.0
2018-Feb-21 05:00N 40°39' W 074°10'1 2.5
2018-Feb-21 04:31N 40°39' W 074°08'3 5.2
2018-Feb-21 04:01N 40°39' W 074°05'0 0.1
2018-Feb-21 03:31N 40°39' W 074°05'2 4.5
2018-Feb-21 03:00N 40°38' W 074°08'0 0.0
2018-Feb-21 02:30N 40°38' W 074°08'0 0.0
2018-Feb-21 02:00N 40°38' W 074°08'0 0.0
2018-Feb-21 01:30N 40°38' W 074°08'0 0.0
2018-Feb-21 01:00N 40°38' W 074°08'0 0.0
2018-Feb-21 00:28N 40°38' W 074°08'0 0.0
2018-Feb-20 23:57N 40°38' W 074°08'0 0.0
2018-Feb-20 23:30N 40°38' W 074°08'0 0.0
2018-Feb-20 23:00N 40°38' W 074°08'1 2.8
2018-Feb-20 22:30N 40°38' W 074°10'0 0.2
2018-Feb-20 22:00N 40°39' W 074°10'0 0.0
2018-Feb-20 21:30N 40°39' W 074°10'0 0.0
2018-Feb-20 21:00N 40°39' W 074°10'1 2.8
2018-Feb-20 20:31N 40°38' W 074°12'4 6.8
2018-Feb-20 19:59N 40°35' W 074°13'3 6.0
2018-Feb-20 19:30N 40°33' W 074°15'0 0.0
2018-Feb-20 18:49N 40°33' W 074°15'0 0.5
2018-Feb-20 18:30N 40°33' W 074°15'0 0.0
2018-Feb-20 17:54N 40°33' W 074°15'3 6.5
2018-Feb-20 17:30N 40°35' W 074°13'4 7.3
2018-Feb-20 16:59N 40°38' W 074°12'3 6.2
2018-Feb-20 16:31N 40°38' W 074°08'2 3.8
2018-Feb-20 16:00N 40°39' W 074°05'1 3.0
2018-Feb-20 15:30N 40°38' W 074°04'0 0.4
2018-Feb-20 15:00N 40°38' W 074°04'2 3.1
2018-Feb-20 14:30N 40°40' W 074°02'0 0.2
2018-Feb-20 14:01N 40°39' W 074°02'0 0.1
2018-Feb-20 13:31N 40°39' W 074°02'0 0.1
2018-Feb-20 13:00N 40°39' W 074°02'0 0.0
2018-Feb-20 12:31N 40°39' W 074°02'0 0.0
2018-Feb-20 12:00N 40°39' W 074°02'0 0.0
2018-Feb-20 11:30N 40°39' W 074°02'1 2.6
2018-Feb-20 11:00N 40°39' W 074°04'3 6.4
2018-Feb-20 10:30N 40°39' W 074°08'0 0.0
2018-Feb-20 09:54N 40°38' W 074°08'0 0.0
2018-Feb-20 09:25N 40°38' W 074°08'0 0.0
2018-Feb-20 05:23N 40°38' W 074°08'0 0.0
2018-Feb-20 05:00N 40°38' W 074°08'0 0.0
2018-Feb-20 04:28N 40°38' W 074°08'0 0.0
2018-Feb-20 03:56N 40°38' W 074°08'0 0.0
2018-Feb-20 01:33N 40°38' W 074°08'0 0.0
2018-Feb-19 23:17N 40°38' W 074°08'0 0.0
2018-Feb-19 22:59N 40°38' W 074°08'0 0.0
2018-Feb-19 22:28N 40°38' W 074°08'1 1.7
2018-Feb-19 22:00N 40°39' W 074°07'0 0.6
2018-Feb-19 21:30N 40°39' W 074°07'0 0.0
2018-Feb-19 21:00N 40°39' W 074°07'3 6.5
2018-Feb-19 20:30N 40°39' W 074°11'3 3.9
2018-Feb-19 19:47N 40°36' W 074°12'0 0.0
2018-Feb-19 19:26N 40°36' W 074°12'0 0.4
2018-Feb-19 19:00N 40°36' W 074°12'0 0.1
2018-Feb-19 18:30N 40°36' W 074°12'0 0.0
2018-Feb-19 17:48N 40°36' W 074°12'0 0.0
2018-Feb-19 17:30N 40°36' W 074°12'0 0.0
2018-Feb-19 16:59N 40°36' W 074°12'0 0.0
2018-Feb-19 16:30N 40°36' W 074°12'0 0.0
2018-Feb-19 16:00N 40°36' W 074°12'3 5.6
2018-Feb-19 15:30N 40°39' W 074°10'2 4.1
2018-Feb-19 15:01N 40°38' W 074°08'0 0.0
2018-Feb-19 14:31N 40°38' W 074°08'0 0.0
2018-Feb-19 14:00N 40°38' W 074°08'0 0.0
2018-Feb-19 13:29N 40°38' W 074°08'0 0.0
2018-Feb-19 13:00N 40°38' W 074°08'0 0.0
2018-Feb-19 12:30N 40°38' W 074°08'2 4.9
2018-Feb-19 12:00N 40°39' W 074°11'1 2.8
2018-Feb-19 11:29N 40°38' W 074°12'3 6.9
2018-Feb-19 11:00N 40°39' W 074°08'0 0.3
2018-Feb-19 10:30N 40°38' W 074°08'0 0.0
2018-Feb-19 10:01N 40°38' W 074°08'0 0.0
2018-Feb-19 09:30N 40°38' W 074°08'0 0.0
2018-Feb-19 09:00N 40°38' W 074°08'0 0.0
2018-Feb-19 08:29N 40°38' W 074°08'0 0.0
2018-Feb-19 08:01N 40°38' W 074°08'0 0.0
2018-Feb-19 07:30N 40°38' W 074°08'0 0.0
2018-Feb-19 07:00N 40°38' W 074°08'0 0.0
2018-Feb-19 06:30N 40°38' W 074°08'0 0.0
2018-Feb-19 06:00N 40°38' W 074°08'0 0.0
2018-Feb-19 05:30N 40°38' W 074°08'0 0.0
2018-Feb-19 05:00N 40°38' W 074°08'0 0.0
2018-Feb-19 04:31N 40°38' W 074°08'0 0.0
2018-Feb-19 04:00N 40°38' W 074°08'0 0.0
2018-Feb-19 03:30N 40°38' W 074°08'0 0.0
2018-Feb-19 03:01N 40°38' W 074°08'0 0.0
2018-Feb-19 02:30N 40°38' W 074°08'0 0.0
2018-Feb-19 02:00N 40°38' W 074°08'0 0.0
2018-Feb-19 01:30N 40°38' W 074°08'0 0.0
2018-Feb-19 00:59N 40°38' W 074°08'0 0.0
2018-Feb-19 00:27N 40°38' W 074°08'0 0.0
2018-Feb-19 00:00N 40°38' W 074°08'1 1.1
2018-Feb-18 23:30N 40°38' W 074°09'1 1.8
2018-Feb-18 23:00N 40°39' W 074°10'0 0.1
2018-Feb-18 22:29N 40°38' W 074°10'0 0.3
2018-Feb-18 22:00N 40°39' W 074°10'0 0.0
2018-Feb-18 21:30N 40°39' W 074°10'1 1.2
2018-Feb-18 21:00N 40°38' W 074°09'1 1.8
2018-Feb-18 20:28N 40°38' W 074°08'0 0.0
2018-Feb-18 19:58N 40°38' W 074°08'0 0.0
2018-Feb-18 19:30N 40°38' W 074°08'0 0.0
2018-Feb-18 19:00N 40°38' W 074°08'0 0.0
2018-Feb-18 18:30N 40°38' W 074°08'0 0.0
2018-Feb-18 18:00N 40°38' W 074°08'0 0.0
2018-Feb-18 17:30N 40°38' W 074°08'0 0.0
2018-Feb-18 17:01N 40°38' W 074°08'0 0.0
2018-Feb-18 16:30N 40°38' W 074°08'0 0.3
2018-Feb-18 15:59N 40°39' W 074°08'1 2.2
2018-Feb-18 15:30N 40°38' W 074°09'1 1.9
2018-Feb-18 14:59N 40°39' W 074°08'0 0.6
2018-Feb-18 14:30N 40°38' W 074°08'0 0.0
2018-Feb-18 14:00N 40°38' W 074°08'0 0.0
2018-Feb-18 13:30N 40°38' W 074°08'0 0.0
2018-Feb-18 13:00N 40°38' W 074°08'0 0.0
2018-Feb-18 12:30N 40°38' W 074°08'0 0.0
2018-Feb-18 12:00N 40°38' W 074°08'3 5.2
2018-Feb-18 11:30N 40°39' W 074°11'1 2.5
2018-Feb-18 10:59N 40°38' W 074°12'0 0.4
2018-Feb-18 10:30N 40°38' W 074°12'2 4.8
2018-Feb-18 10:00N 40°39' W 074°09'1 2.0
2018-Feb-18 09:30N 40°38' W 074°08'0 0.0
2018-Feb-18 09:00N 40°38' W 074°08'0 0.0
2018-Feb-18 08:30N 40°38' W 074°08'0 0.0
2018-Feb-18 08:00N 40°38' W 074°08'0 0.0
2018-Feb-18 07:30N 40°38' W 074°08'0 0.0
2018-Feb-18 06:59N 40°38' W 074°08'0 0.0
2018-Feb-18 06:30N 40°38' W 074°08'0 0.0
2018-Feb-18 06:00N 40°38' W 074°08'0 0.0
2018-Feb-18 05:30N 40°38' W 074°08'0 0.0
2018-Feb-18 05:00N 40°38' W 074°08'0 0.0
2018-Feb-18 04:30N 40°38' W 074°08'0 0.0
2018-Feb-18 04:00N 40°38' W 074°08'0 0.0
2018-Feb-18 03:30N 40°38' W 074°08'0 0.0
2018-Feb-18 03:00N 40°38' W 074°08'0 0.0
2018-Feb-18 02:30N 40°38' W 074°08'0 0.0
2018-Feb-18 02:00N 40°38' W 074°08'0 0.0
2018-Feb-18 01:30N 40°38' W 074°08'0 0.0
2018-Feb-18 01:00N 40°38' W 074°08'0 0.0
2018-Feb-18 00:29N 40°38' W 074°08'0 0.0
2018-Feb-18 00:00N 40°38' W 074°08'0 0.0
2018-Feb-17 23:30N 40°38' W 074°08'0 0.0
2018-Feb-17 22:59N 40°38' W 074°08'0 0.0
2018-Feb-17 22:30N 40°38' W 074°08'0 0.0
2018-Feb-17 22:00N 40°38' W 074°08'0 0.0
2018-Feb-17 21:29N 40°38' W 074°08'0 0.0
2018-Feb-17 21:00N 40°38' W 074°08'0 0.0
2018-Feb-17 20:30N 40°38' W 074°08'0 0.0
2018-Feb-17 20:00N 40°38' W 074°08'0 0.0
2018-Feb-17 19:31N 40°38' W 074°08'0 0.0
2018-Feb-17 19:01N 40°38' W 074°08'0 0.0
2018-Feb-17 18:30N 40°38' W 074°08'0 0.0
2018-Feb-17 18:00N 40°38' W 074°08'0 0.0
2018-Feb-17 17:27N 40°38' W 074°08'0 0.0
2018-Feb-17 17:00N 40°38' W 074°08'0 0.0
2018-Feb-17 16:28N 40°38' W 074°08'0 0.0
2018-Feb-17 16:00N 40°38' W 074°08'0 0.0
2018-Feb-17 15:29N 40°38' W 074°08'0 0.0
2018-Feb-17 15:01N 40°38' W 074°08'0 0.0
2018-Feb-17 14:30N 40°38' W 074°08'0 0.0
2018-Feb-17 13:58N 40°38' W 074°08'0 0.0
2018-Feb-17 13:30N 40°38' W 074°08'0 0.0
2018-Feb-17 13:00N 40°38' W 074°08'0 0.0
2018-Feb-17 12:30N 40°38' W 074°08'0 0.0
2018-Feb-17 11:59N 40°38' W 074°08'0 0.0
2018-Feb-17 11:29N 40°38' W 074°08'0 0.0
2018-Feb-17 10:59N 40°38' W 074°08'0 0.0
2018-Feb-17 10:30N 40°38' W 074°08'0 0.0
2018-Feb-17 10:00N 40°38' W 074°08'0 0.0
2018-Feb-17 09:30N 40°38' W 074°08'0 0.0
2018-Feb-17 08:59N 40°38' W 074°08'0 0.0
2018-Feb-17 08:30N 40°38' W 074°08'0 0.0
2018-Feb-17 07:59N 40°38' W 074°08'0 0.0
2018-Feb-17 07:30N 40°38' W 074°08'0 0.0
2018-Feb-17 06:59N 40°38' W 074°08'0 0.0
2018-Feb-17 06:30N 40°38' W 074°08'0 0.0
2018-Feb-17 06:00N 40°38' W 074°08'0 0.0
2018-Feb-17 05:30N 40°38' W 074°08'0 0.0
2018-Feb-17 05:00N 40°38' W 074°08'0 0.0
2018-Feb-17 04:31N 40°38' W 074°08'0 0.0
2018-Feb-17 04:00N 40°38' W 074°08'0 0.0
2018-Feb-17 03:30N 40°38' W 074°08'0 0.0
2018-Feb-17 03:00N 40°38' W 074°08'0 0.0
2018-Feb-17 02:30N 40°38' W 074°08'0 0.0
2018-Feb-17 02:00N 40°38' W 074°08'0 0.0
2018-Feb-17 01:30N 40°38' W 074°08'0 0.0
2018-Feb-17 01:00N 40°38' W 074°08'0 0.0
2018-Feb-17 00:30N 40°38' W 074°08'0 0.0
2018-Feb-17 00:00N 40°38' W 074°08'0 0.0
2018-Feb-16 23:30N 40°38' W 074°08'0 0.0
2018-Feb-16 23:00N 40°38' W 074°08'0 0.0
2018-Feb-16 22:30N 40°38' W 074°08'0 0.0
2018-Feb-16 22:00N 40°38' W 074°08'0 0.0
2018-Feb-16 21:30N 40°38' W 074°08'1 2.3
2018-Feb-16 21:01N 40°38' W 074°09'0 0.8
2018-Feb-16 20:30N 40°38' W 074°09'0 0.2
2018-Feb-16 20:00N 40°38' W 074°09'1 1.7
2018-Feb-16 19:30N 40°38' W 074°08'0 0.0
2018-Feb-16 19:00N 40°38' W 074°08'1 2.4
2018-Feb-16 18:30N 40°38' W 074°09'1 2.3
2018-Feb-16 17:59N 40°38' W 074°08'0 0.0
2018-Feb-16 17:30N 40°38' W 074°08'0 0.0
2018-Feb-16 17:00N 40°38' W 074°08'0 0.0
2018-Feb-16 16:25N 40°38' W 074°08'0 0.0
2018-Feb-16 16:00N 40°38' W 074°08'0 0.0
2018-Feb-16 15:30N 40°38' W 074°08'0 0.0
2018-Feb-16 15:00N 40°38' W 074°08'0 0.0
2018-Feb-16 14:30N 40°38' W 074°08'0 0.8
2018-Feb-16 14:00N 40°39' W 074°07'4 8.5
2018-Feb-16 13:31N 40°41' W 074°03'4 8.2
2018-Feb-16 13:00N 40°45' W 074°01'2 3.5
2018-Feb-16 12:31N 40°46' W 074°00'0 0.3
2018-Feb-16 12:00N 40°46' W 074°00'0 0.3
2018-Feb-16 11:31N 40°46' W 074°00'4 8.0
2018-Feb-16 11:00N 40°42' W 074°02'4 8.3
2018-Feb-16 10:30N 40°39' W 074°06'2 3.6
2018-Feb-16 10:00N 40°39' W 074°08'0 0.0
2018-Feb-16 09:30N 40°39' W 074°08'0 0.0
2018-Feb-16 09:00N 40°39' W 074°08'0 0.0
2018-Feb-16 08:30N 40°39' W 074°08'0 0.0
2018-Feb-16 08:00N 40°39' W 074°08'0 0.0
2018-Feb-16 07:30N 40°39' W 074°08'0 0.0
2018-Feb-16 06:59N 40°39' W 074°08'0 0.0
2018-Feb-16 06:29N 40°39' W 074°08'0 0.0
2018-Feb-16 06:00N 40°39' W 074°08'0 0.0
2018-Feb-16 05:30N 40°39' W 074°08'0 0.0
2018-Feb-16 04:59N 40°39' W 074°08'0 0.0
2018-Feb-16 04:30N 40°39' W 074°08'0 0.0
2018-Feb-16 04:01N 40°39' W 074°08'0 0.0
2018-Feb-16 03:29N 40°39' W 074°08'0 0.0
2018-Feb-16 03:00N 40°39' W 074°08'0 0.0
2018-Feb-16 02:30N 40°39' W 074°08'2 3.1
2018-Feb-16 02:00N 40°39' W 074°10'0 0.6
2018-Feb-16 01:29N 40°39' W 074°10'0 0.2
2018-Feb-16 01:00N 40°39' W 074°10'0 0.4
2018-Feb-16 00:30N 40°39' W 074°10'0 0.0
2018-Feb-16 00:00N 40°39' W 074°10'1 1.2
2018-Feb-15 23:30N 40°38' W 074°09'1 1.9
2018-Feb-15 23:00N 40°39' W 074°08'0 0.0
2018-Feb-15 22:30N 40°39' W 074°08'0 0.0
2018-Feb-15 22:00N 40°39' W 074°08'0 0.0
2018-Feb-15 21:30N 40°39' W 074°08'0 0.0
2018-Feb-15 21:00N 40°39' W 074°08'1 1.5
2018-Feb-15 20:30N 40°39' W 074°07'0 0.0
2018-Feb-15 20:00N 40°39' W 074°07'0 0.0
2018-Feb-15 19:30N 40°39' W 074°07'0 0.3
2018-Feb-15 19:00N 40°39' W 074°07'0 0.0
2018-Feb-15 18:29N 40°39' W 074°07'0 0.1
2018-Feb-15 18:01N 40°39' W 074°07'2 4.5
2018-Feb-15 17:30N 40°38' W 074°10'0 0.0
2018-Feb-15 17:00N 40°38' W 074°10'0 0.0
2018-Feb-15 16:29N 40°38' W 074°10'0 0.0
2018-Feb-15 16:00N 40°38' W 074°10'0 0.0
2018-Feb-15 15:30N 40°38' W 074°10'0 0.0
2018-Feb-15 14:59N 40°38' W 074°10'0 0.0
2018-Feb-15 14:30N 40°38' W 074°10'0 0.0
2018-Feb-15 14:00N 40°38' W 074°10'1 3.0
2018-Feb-15 13:30N 40°39' W 074°08'0 0.0
2018-Feb-15 13:00N 40°39' W 074°08'0 0.0
2018-Feb-15 12:29N 40°39' W 074°08'0 0.0
2018-Feb-15 12:00N 40°39' W 074°08'0 0.0
2018-Feb-15 11:30N 40°39' W 074°08'0 0.0
2018-Feb-15 11:00N 40°39' W 074°08'0 0.0
2018-Feb-15 10:30N 40°39' W 074°08'0 0.0
2018-Feb-15 10:00N 40°39' W 074°08'0 0.0
2018-Feb-15 09:30N 40°39' W 074°08'0 0.0
2018-Feb-15 08:59N 40°39' W 074°08'0 0.0
2018-Feb-15 08:30N 40°39' W 074°08'0 0.0
2018-Feb-15 08:00N 40°39' W 074°08'0 0.0
2018-Feb-15 07:30N 40°39' W 074°08'0 0.0
2018-Feb-15 07:00N 40°39' W 074°08'0 0.0
2018-Feb-15 06:30N 40°39' W 074°08'0 0.0
2018-Feb-15 06:00N 40°39' W 074°08'0 0.0
2018-Feb-15 05:30N 40°39' W 074°08'0 0.0
2018-Feb-15 05:00N 40°39' W 074°08'0 0.0
2018-Feb-15 04:29N 40°39' W 074°08'0 0.0
2018-Feb-15 04:00N 40°39' W 074°08'0 0.0
2018-Feb-15 03:29N 40°39' W 074°08'0 0.0
2018-Feb-15 03:00N 40°39' W 074°08'0 0.0
2018-Feb-15 02:30N 40°39' W 074°08'0 0.0
2018-Feb-15 02:00N 40°39' W 074°08'0 0.0
2018-Feb-15 01:31N 40°39' W 074°08'0 0.0
2018-Feb-15 01:00N 40°39' W 074°08'0 0.0
2018-Feb-15 00:30N 40°39' W 074°08'0 0.0
2018-Feb-15 00:00N 40°39' W 074°08'0 0.0
2018-Feb-14 23:30N 40°39' W 074°08'0 0.0
2018-Feb-14 23:00N 40°39' W 074°08'0 0.0
2018-Feb-14 22:30N 40°39' W 074°08'0 0.0
2018-Feb-14 22:00N 40°39' W 074°08'3 5.3
2018-Feb-14 21:30N 40°39' W 074°11'1 2.6
2018-Feb-14 21:01N 40°38' W 074°12'3 6.9
2018-Feb-14 20:31N 40°39' W 074°08'0 0.0
2018-Feb-14 20:00N 40°39' W 074°08'1 2.8
2018-Feb-14 19:29N 40°38' W 074°10'1 3.0
2018-Feb-14 19:00N 40°39' W 074°08'0 0.0
2018-Feb-14 18:30N 40°39' W 074°08'0 0.0
2018-Feb-14 17:59N 40°39' W 074°08'0 0.0
2018-Feb-14 17:30N 40°39' W 074°08'0 0.0
2018-Feb-14 17:00N 40°39' W 074°08'0 0.0
2018-Feb-14 16:30N 40°39' W 074°08'0 0.0
2018-Feb-14 16:00N 40°39' W 074°08'0 0.0
2018-Feb-14 15:29N 40°39' W 074°08'0 0.0
2018-Feb-14 15:00N 40°39' W 074°08'0 0.0
2018-Feb-14 14:30N 40°39' W 074°08'0 0.0
2018-Feb-14 13:58N 40°39' W 074°08'0 0.0
2018-Feb-14 13:30N 40°39' W 074°08'0 0.0
2018-Feb-14 13:00N 40°39' W 074°08'0 0.0
2018-Feb-14 12:30N 40°39' W 074°08'0 0.0
2018-Feb-14 12:00N 40°39' W 074°08'0 0.0
2018-Feb-14 11:30N 40°39' W 074°08'0 0.0
2018-Feb-14 11:00N 40°39' W 074°08'0 0.0
2018-Feb-14 10:30N 40°39' W 074°08'0 0.0
2018-Feb-14 10:00N 40°39' W 074°08'0 0.0
2018-Feb-14 09:30N 40°39' W 074°08'0 0.0
2018-Feb-14 09:00N 40°39' W 074°08'0 0.0
2018-Feb-14 08:30N 40°39' W 074°08'0 0.0
2018-Feb-14 08:00N 40°39' W 074°08'0 0.0
2018-Feb-14 07:30N 40°39' W 074°08'0 0.0
2018-Feb-14 07:00N 40°39' W 074°08'0 0.0
2018-Feb-14 06:31N 40°39' W 074°08'0 0.0
2018-Feb-14 06:00N 40°39' W 074°08'0 0.0
2018-Feb-14 05:30N 40°39' W 074°08'0 0.0
2018-Feb-14 05:00N 40°39' W 074°08'0 0.0
2018-Feb-14 04:29N 40°39' W 074°08'0 0.0
2018-Feb-14 04:00N 40°39' W 074°08'0 0.0
2018-Feb-14 03:30N 40°39' W 074°08'0 0.0
2018-Feb-14 03:00N 40°39' W 074°08'0 0.0
2018-Feb-14 02:30N 40°39' W 074°08'0 0.0
2018-Feb-14 01:59N 40°39' W 074°08'0 0.0
2018-Feb-14 01:15N 40°39' W 074°08'0 0.0
2018-Feb-14 00:57N 40°39' W 074°08'0 0.0
2018-Feb-14 00:30N 40°39' W 074°08'0 0.3
2018-Feb-14 00:00N 40°39' W 074°08'2 4.3
2018-Feb-13 23:31N 40°39' W 074°05'0 0.4
2018-Feb-13 23:00N 40°39' W 074°05'2 4.0
2018-Feb-13 22:30N 40°39' W 074°07'0 0.9
2018-Feb-13 22:00N 40°39' W 074°08'0 0.0
2018-Feb-13 21:30N 40°39' W 074°08'0 0.0
2018-Feb-13 21:00N 40°39' W 074°08'1 1.9
2018-Feb-13 20:30N 40°39' W 074°07'2 3.2
2018-Feb-13 20:01N 40°39' W 074°05'3 4.9
2018-Feb-13 19:30N 40°39' W 074°08'0 0.0
2018-Feb-13 19:00N 40°39' W 074°08'0 0.0
2018-Feb-13 18:30N 40°39' W 074°08'0 0.0
2018-Feb-13 18:00N 40°39' W 074°08'0 0.0
2018-Feb-13 17:29N 40°39' W 074°08'0 0.0
2018-Feb-13 17:00N 40°39' W 074°08'0 0.0
2018-Feb-13 16:30N 40°39' W 074°08'0 0.0
2018-Feb-13 15:59N 40°39' W 074°08'0 0.0
2018-Feb-13 15:30N 40°39' W 074°08'0 0.0
2018-Feb-13 15:00N 40°39' W 074°08'0 0.0
2018-Feb-13 14:30N 40°39' W 074°08'0 0.0
2018-Feb-13 14:00N 40°39' W 074°08'0 0.0
2018-Feb-13 13:30N 40°39' W 074°08'0 0.0
2018-Feb-13 12:57N 40°39' W 074°08'0 0.0
2018-Feb-13 12:28N 40°39' W 074°08'0 0.0
2018-Feb-13 11:51N 40°39' W 074°08'0 0.0
2018-Feb-13 11:30N 40°39' W 074°08'0 0.0
2018-Feb-13 10:36N 40°39' W 074°08'0 0.0
2018-Feb-13 10:29N 40°39' W 074°08'0 0.0
2018-Feb-13 09:53N 40°39' W 074°08'0 0.0
2018-Feb-13 09:29N 40°39' W 074°08'0 0.0
2018-Feb-13 08:43N 40°39' W 074°08'0 0.0
2018-Feb-13 08:31N 40°39' W 074°08'0 0.0
2018-Feb-13 07:37N 40°39' W 074°08'0 0.0
2018-Feb-13 07:15N 40°39' W 074°08'0 0.0
2018-Feb-13 06:58N 40°39' W 074°08'0 0.0
2018-Feb-13 06:28N 40°39' W 074°08'0 0.0
2018-Feb-13 05:57N 40°39' W 074°08'0 0.0
2018-Feb-13 05:29N 40°39' W 074°08'0 0.0
2018-Feb-13 04:59N 40°39' W 074°08'0 0.0
2018-Feb-13 04:27N 40°39' W 074°08'0 0.0
2018-Feb-13 03:59N 40°39' W 074°08'0 0.0
2018-Feb-13 03:27N 40°39' W 074°08'0 0.0
2018-Feb-13 02:59N 40°39' W 074°08'0 0.0
2018-Feb-13 02:30N 40°39' W 074°08'0 0.0
2018-Feb-13 01:21N 40°39' W 074°08'0 0.0
2018-Feb-12 23:37N 40°39' W 074°08'0 3.0
2018-Feb-12 23:29N 40°39' W 074°07'3 5.2
2018-Feb-12 23:00N 40°40' W 074°04'0 0.0
2018-Feb-12 22:28N 40°40' W 074°04'3 5.6
2018-Feb-12 22:01N 40°39' W 074°07'0 0.7
2018-Feb-12 21:31N 40°39' W 074°08'0 0.0
2018-Feb-12 20:59N 40°39' W 074°08'0 0.0
2018-Feb-12 20:29N 40°39' W 074°08'0 0.0
2018-Feb-12 19:59N 40°39' W 074°08'0 0.0
2018-Feb-12 19:30N 40°39' W 074°08'0 0.0
2018-Feb-12 19:00N 40°39' W 074°08'0 0.0
2018-Feb-12 18:30N 40°39' W 074°08'0 0.0
2018-Feb-12 18:00N 40°39' W 074°08'0 0.0
2018-Feb-12 17:30N 40°39' W 074°08'0 0.0
2018-Feb-12 17:00N 40°39' W 074°08'0 0.0
2018-Feb-12 16:31N 40°39' W 074°08'0 0.0
2018-Feb-12 15:59N 40°39' W 074°08'0 0.0
2018-Feb-12 15:30N 40°39' W 074°08'0 0.0
2018-Feb-12 15:00N 40°39' W 074°08'0 0.0
2018-Feb-12 14:30N 40°39' W 074°08'0 0.0
2018-Feb-12 14:00N 40°39' W 074°08'0 0.0
2018-Feb-12 13:30N 40°39' W 074°08'0 0.0
2018-Feb-12 13:00N 40°39' W 074°08'0 0.0
2018-Feb-12 12:31N 40°39' W 074°08'0 0.0
2018-Feb-12 12:00N 40°39' W 074°08'0 0.0
2018-Feb-12 11:31N 40°39' W 074°08'0 0.0
2018-Feb-12 11:01N 40°39' W 074°08'0 0.0
2018-Feb-12 10:30N 40°39' W 074°08'0 0.0
2018-Feb-12 10:00N 40°39' W 074°08'0 0.0
2018-Feb-12 09:30N 40°39' W 074°08'0 0.0
2018-Feb-12 08:59N 40°39' W 074°08'0 0.0
2018-Feb-12 08:30N 40°39' W 074°08'0 0.0
2018-Feb-12 08:00N 40°39' W 074°08'0 0.0
2018-Feb-12 07:30N 40°39' W 074°08'0 0.0
2018-Feb-12 07:00N 40°39' W 074°08'0 0.0
2018-Feb-12 06:29N 40°39' W 074°08'0 0.0
2018-Feb-12 06:00N 40°39' W 074°08'0 0.0
2018-Feb-12 05:30N 40°39' W 074°08'0 0.0
2018-Feb-12 04:48N 40°39' W 074°08'0 0.0
2018-Feb-12 04:24N 40°39' W 074°08'0 0.0
2018-Feb-12 03:59N 40°39' W 074°08'0 0.0
2018-Feb-12 03:29N 40°39' W 074°08'0 0.0
2018-Feb-12 02:59N 40°39' W 074°08'0 0.0
2018-Feb-12 02:30N 40°39' W 074°08'0 0.0
2018-Feb-12 01:59N 40°39' W 074°08'0 0.0
2018-Feb-12 01:30N 40°39' W 074°08'0 0.0
2018-Feb-12 00:56N 40°39' W 074°08'0 0.0
2018-Feb-12 00:30N 40°39' W 074°08'0 0.0
2018-Feb-12 00:00N 40°39' W 074°08'0 0.0
2018-Feb-11 23:30N 40°39' W 074°08'0 0.0
2018-Feb-11 23:00N 40°39' W 074°08'  
Track history (hours):
 
Tides and Currents Weather Stations Pressure Air Temp Water Temp Dewpoint Dewpoint Depression Visibility Wind Speed Wind Dir Waves Ship Positions

Normandy

Owner: Metropolitan Marine Transportation, Inc., Staten Island, NY. More information available from US FCC via Universal Licensing System and Coast Guard Vessel Documentation Center.

Last reported at 2018-Feb-21 22:30 UTC. Time now 2018-Feb-21 22:54 UTC.
Position N 40°36' W 074°12'.

Type: Towing. MMSI: 367686940.

Date/timePositionNaut miles runAvg speedWind from/ knotsBaromVisibWave heightAir tempDewpointWater temp
2018-Feb-21 22:30N 40°36' W 074°12'0 0.0
2018-Feb-21 22:00N 40°36' W 074°12'2 3.2
2018-Feb-21 21:30N 40°34' W 074°13'2 2.4
2018-Feb-21 20:30N 40°33' W 074°15'0 0.0
2018-Feb-21 19:59N 40°33' W 074°15'2 4.7
2018-Feb-21 19:30N 40°34' W 074°13'3 4.6
2018-Feb-21 18:55N 40°37' W 074°12'0 0.0
2018-Feb-21 18:29N 40°37' W 074°12'3 6.1
2018-Feb-21 18:00N 40°39' W 074°10'3 5.4
2018-Feb-21 17:30N 40°39' W 074°06'1 1.9
2018-Feb-21 17:00N 40°39' W 074°08'0 0.4
2018-Feb-21 16:30N 40°38' W 074°08'0 0.0
2018-Feb-21 16:00N 40°38' W 074°08'0 0.0
2018-Feb-21 15:30N 40°38' W 074°08'0 0.0
2018-Feb-21 14:58N 40°38' W 074°08'0 0.0
2018-Feb-21 14:29N 40°38' W 074°08'0 0.0
2018-Feb-21 13:59N 40°38' W 074°08'0 0.0
2018-Feb-21 13:29N 40°38' W 074°08'0 0.0
2018-Feb-21 13:00N 40°38' W 074°08'0 0.0
2018-Feb-21 12:29N 40°38' W 074°08'0 0.0
2018-Feb-21 12:00N 40°38' W 074°08'0 0.0
2018-Feb-21 11:30N 40°38' W 074°08'0 0.0
2018-Feb-21 11:00N 40°38' W 074°08'0 0.0
2018-Feb-21 10:30N 40°38' W 074°08'0 0.0
2018-Feb-21 10:01N 40°38' W 074°08'0 0.0
2018-Feb-21 09:30N 40°38' W 074°08'0 0.0
2018-Feb-21 08:58N 40°38' W 074°08'0 0.0
2018-Feb-21 08:30N 40°38' W 074°08'0 0.0
2018-Feb-21 07:59N 40°38' W 074°08'0 0.0
2018-Feb-21 07:29N 40°38' W 074°08'0 0.0
2018-Feb-21 06:58N 40°38' W 074°08'0 0.0
2018-Feb-21 06:28N 40°38' W 074°08'0 0.0
2018-Feb-21 06:00N 40°38' W 074°08'0 0.0
2018-Feb-21 05:30N 40°38' W 074°08'2 3.0
2018-Feb-21 05:00N 40°39' W 074°10'1 2.5
2018-Feb-21 04:31N 40°39' W 074°08'3 5.2
2018-Feb-21 04:01N 40°39' W 074°05'0 0.1
2018-Feb-21 03:31N 40°39' W 074°05'2 4.5
2018-Feb-21 03:00N 40°38' W 074°08'0 0.0
2018-Feb-21 02:30N 40°38' W 074°08'0 0.0
2018-Feb-21 02:00N 40°38' W 074°08'0 0.0
2018-Feb-21 01:30N 40°38' W 074°08'0 0.0
2018-Feb-21 01:00N 40°38' W 074°08'0 0.0
2018-Feb-21 00:28N 40°38' W 074°08'0 0.0
2018-Feb-20 23:57N 40°38' W 074°08'0 0.0
2018-Feb-20 23:30N 40°38' W 074°08'0 0.0
2018-Feb-20 23:00N 40°38' W 074°08'1 2.8
2018-Feb-20 22:30N 40°38' W 074°10'0 0.2
2018-Feb-20 22:00N 40°39' W 074°10'0 0.0
2018-Feb-20 21:30N 40°39' W 074°10'0 0.0
2018-Feb-20 21:00N 40°39' W 074°10'1 2.8
2018-Feb-20 20:31N 40°38' W 074°12'4 6.8
2018-Feb-20 19:59N 40°35' W 074°13'3 6.0
2018-Feb-20 19:30N 40°33' W 074°15'0 0.0
2018-Feb-20 18:49N 40°33' W 074°15'0 0.5
2018-Feb-20 18:30N 40°33' W 074°15'0 0.0
2018-Feb-20 17:54N 40°33' W 074°15'3 6.5
2018-Feb-20 17:30N 40°35' W 074°13'4 7.3
2018-Feb-20 16:59N 40°38' W 074°12'3 6.2
2018-Feb-20 16:31N 40°38' W 074°08'2 3.8
2018-Feb-20 16:00N 40°39' W 074°05'1 3.0
2018-Feb-20 15:30N 40°38' W 074°04'0 0.4
2018-Feb-20 15:00N 40°38' W 074°04'2 3.1
2018-Feb-20 14:30N 40°40' W 074°02'0 0.2
2018-Feb-20 14:01N 40°39' W 074°02'0 0.1
2018-Feb-20 13:31N 40°39' W 074°02'0 0.1
2018-Feb-20 13:00N 40°39' W 074°02'0 0.0
2018-Feb-20 12:31N 40°39' W 074°02'0 0.0
2018-Feb-20 12:00N 40°39' W 074°02'0 0.0
2018-Feb-20 11:30N 40°39' W 074°02'1 2.6
2018-Feb-20 11:00N 40°39' W 074°04'3 6.4
2018-Feb-20 10:30N 40°39' W 074°08'0 0.0
2018-Feb-20 09:54N 40°38' W 074°08'0 0.0
2018-Feb-20 09:25N 40°38' W 074°08'0 0.0
2018-Feb-20 05:23N 40°38' W 074°08'0 0.0
2018-Feb-20 05:00N 40°38' W 074°08'0 0.0
2018-Feb-20 04:28N 40°38' W 074°08'0 0.0
2018-Feb-20 03:56N 40°38' W 074°08'0 0.0
2018-Feb-20 01:33N 40°38' W 074°08'0 0.0
2018-Feb-19 23:17N 40°38' W 074°08'0 0.0
2018-Feb-19 22:59N 40°38' W 074°08'0 0.0
2018-Feb-19 22:28N 40°38' W 074°08'1 1.7
2018-Feb-19 22:00N 40°39' W 074°07'0 0.6
2018-Feb-19 21:30N 40°39' W 074°07'0 0.0
2018-Feb-19 21:00N 40°39' W 074°07'3 6.5
2018-Feb-19 20:30N 40°39' W 074°11'3 3.9
2018-Feb-19 19:47N 40°36' W 074°12'0 0.0
2018-Feb-19 19:26N 40°36' W 074°12'0 0.4
2018-Feb-19 19:00N 40°36' W 074°12'0 0.1
2018-Feb-19 18:30N 40°36' W 074°12'0 0.0
2018-Feb-19 17:48N 40°36' W 074°12'0 0.0
2018-Feb-19 17:30N 40°36' W 074°12'0 0.0
2018-Feb-19 16:59N 40°36' W 074°12'0 0.0
2018-Feb-19 16:30N 40°36' W 074°12'0 0.0
2018-Feb-19 16:00N 40°36' W 074°12'3 5.6
2018-Feb-19 15:30N 40°39' W 074°10'2 4.1
2018-Feb-19 15:01N 40°38' W 074°08'0 0.0
2018-Feb-19 14:31N 40°38' W 074°08'0 0.0
2018-Feb-19 14:00N 40°38' W 074°08'0 0.0
2018-Feb-19 13:29N 40°38' W 074°08'0 0.0
2018-Feb-19 13:00N 40°38' W 074°08'0 0.0
2018-Feb-19 12:30N 40°38' W 074°08'2 4.9
2018-Feb-19 12:00N 40°39' W 074°11'1 2.8
2018-Feb-19 11:29N 40°38' W 074°12'3 6.9
2018-Feb-19 11:00N 40°39' W 074°08'0 0.3
2018-Feb-19 10:30N 40°38' W 074°08'0 0.0
2018-Feb-19 10:01N 40°38' W 074°08'0 0.0
2018-Feb-19 09:30N 40°38' W 074°08'0 0.0
2018-Feb-19 09:00N 40°38' W 074°08'0 0.0
2018-Feb-19 08:29N 40°38' W 074°08'0 0.0
2018-Feb-19 08:01N 40°38' W 074°08'0 0.0
2018-Feb-19 07:30N 40°38' W 074°08'0 0.0
2018-Feb-19 07:00N 40°38' W 074°08'0 0.0
2018-Feb-19 06:30N 40°38' W 074°08'0 0.0
2018-Feb-19 06:00N 40°38' W 074°08'0 0.0
2018-Feb-19 05:30N 40°38' W 074°08'0 0.0
2018-Feb-19 05:00N 40°38' W 074°08'0 0.0
2018-Feb-19 04:31N 40°38' W 074°08'0 0.0
2018-Feb-19 04:00N 40°38' W 074°08'0 0.0
2018-Feb-19 03:30N 40°38' W 074°08'0 0.0
2018-Feb-19 03:01N 40°38' W 074°08'0 0.0
2018-Feb-19 02:30N 40°38' W 074°08'0 0.0
2018-Feb-19 02:00N 40°38' W 074°08'0 0.0
2018-Feb-19 01:30N 40°38' W 074°08'0 0.0
2018-Feb-19 00:59N 40°38' W 074°08'0 0.0
2018-Feb-19 00:27N 40°38' W 074°08'0 0.0
2018-Feb-19 00:00N 40°38' W 074°08'1 1.1
2018-Feb-18 23:30N 40°38' W 074°09'1 1.8
2018-Feb-18 23:00N 40°39' W 074°10'0 0.1
2018-Feb-18 22:29N 40°38' W 074°10'0 0.3
2018-Feb-18 22:00N 40°39' W 074°10'0 0.0
2018-Feb-18 21:30N 40°39' W 074°10'1 1.2
2018-Feb-18 21:00N 40°38' W 074°09'1 1.8
2018-Feb-18 20:28N 40°38' W 074°08'0 0.0
2018-Feb-18 19:58N 40°38' W 074°08'0 0.0
2018-Feb-18 19:30N 40°38' W 074°08'0 0.0
2018-Feb-18 19:00N 40°38' W 074°08'0 0.0
2018-Feb-18 18:30N 40°38' W 074°08'0 0.0
2018-Feb-18 18:00N 40°38' W 074°08'0 0.0
2018-Feb-18 17:30N 40°38' W 074°08'0 0.0
2018-Feb-18 17:01N 40°38' W 074°08'0 0.0
2018-Feb-18 16:30N 40°38' W 074°08'0 0.3
2018-Feb-18 15:59N 40°39' W 074°08'1 2.2
2018-Feb-18 15:30N 40°38' W 074°09'1 1.9
2018-Feb-18 14:59N 40°39' W 074°08'0 0.6
2018-Feb-18 14:30N 40°38' W 074°08'0 0.0
2018-Feb-18 14:00N 40°38' W 074°08'0 0.0
2018-Feb-18 13:30N 40°38' W 074°08'0 0.0
2018-Feb-18 13:00N 40°38' W 074°08'0 0.0
2018-Feb-18 12:30N 40°38' W 074°08'0 0.0
2018-Feb-18 12:00N 40°38' W 074°08'3 5.2
2018-Feb-18 11:30N 40°39' W 074°11'1 2.5
2018-Feb-18 10:59N 40°38' W 074°12'0 0.4
2018-Feb-18 10:30N 40°38' W 074°12'2 4.8
2018-Feb-18 10:00N 40°39' W 074°09'1 2.0
2018-Feb-18 09:30N 40°38' W 074°08'0 0.0
2018-Feb-18 09:00N 40°38' W 074°08'0 0.0
2018-Feb-18 08:30N 40°38' W 074°08'0 0.0
2018-Feb-18 08:00N 40°38' W 074°08'0 0.0
2018-Feb-18 07:30N 40°38' W 074°08'0 0.0
2018-Feb-18 06:59N 40°38' W 074°08'0 0.0
2018-Feb-18 06:30N 40°38' W 074°08'0 0.0
2018-Feb-18 06:00N 40°38' W 074°08'0 0.0
2018-Feb-18 05:30N 40°38' W 074°08'0 0.0
2018-Feb-18 05:00N 40°38' W 074°08'0 0.0
2018-Feb-18 04:30N 40°38' W 074°08'0 0.0
2018-Feb-18 04:00N 40°38' W 074°08'0 0.0
2018-Feb-18 03:30N 40°38' W 074°08'0 0.0
2018-Feb-18 03:00N 40°38' W 074°08'0 0.0
2018-Feb-18 02:30N 40°38' W 074°08'0 0.0
2018-Feb-18 02:00N 40°38' W 074°08'0 0.0
2018-Feb-18 01:30N 40°38' W 074°08'0 0.0
2018-Feb-18 01:00N 40°38' W 074°08'0 0.0
2018-Feb-18 00:29N 40°38' W 074°08'0 0.0
2018-Feb-18 00:00N 40°38' W 074°08'0 0.0
2018-Feb-17 23:30N 40°38' W 074°08'0 0.0
2018-Feb-17 22:59N 40°38' W 074°08'0 0.0
2018-Feb-17 22:30N 40°38' W 074°08'0 0.0
2018-Feb-17 22:00N 40°38' W 074°08'0 0.0
2018-Feb-17 21:29N 40°38' W 074°08'0 0.0
2018-Feb-17 21:00N 40°38' W 074°08'0 0.0
2018-Feb-17 20:30N 40°38' W 074°08'0 0.0
2018-Feb-17 20:00N 40°38' W 074°08'0 0.0
2018-Feb-17 19:31N 40°38' W 074°08'0 0.0
2018-Feb-17 19:01N 40°38' W 074°08'0 0.0
2018-Feb-17 18:30N 40°38' W 074°08'0 0.0
2018-Feb-17 18:00N 40°38' W 074°08'0 0.0
2018-Feb-17 17:27N 40°38' W 074°08'0 0.0
2018-Feb-17 17:00N 40°38' W 074°08'0 0.0
2018-Feb-17 16:28N 40°38' W 074°08'0 0.0
2018-Feb-17 16:00N 40°38' W 074°08'0 0.0
2018-Feb-17 15:29N 40°38' W 074°08'0 0.0
2018-Feb-17 15:01N 40°38' W 074°08'0 0.0
2018-Feb-17 14:30N 40°38' W 074°08'0 0.0
2018-Feb-17 13:58N 40°38' W 074°08'0 0.0
2018-Feb-17 13:30N 40°38' W 074°08'0 0.0
2018-Feb-17 13:00N 40°38' W 074°08'0 0.0
2018-Feb-17 12:30N 40°38' W 074°08'0 0.0
2018-Feb-17 11:59N 40°38' W 074°08'0 0.0
2018-Feb-17 11:29N 40°38' W 074°08'0 0.0
2018-Feb-17 10:59N 40°38' W 074°08'0 0.0
2018-Feb-17 10:30N 40°38' W 074°08'0 0.0
2018-Feb-17 10:00N 40°38' W 074°08'0 0.0
2018-Feb-17 09:30N 40°38' W 074°08'0 0.0
2018-Feb-17 08:59N 40°38' W 074°08'0 0.0
2018-Feb-17 08:30N 40°38' W 074°08'0 0.0
2018-Feb-17 07:59N 40°38' W 074°08'0 0.0
2018-Feb-17 07:30N 40°38' W 074°08'0 0.0
2018-Feb-17 06:59N 40°38' W 074°08'0 0.0
2018-Feb-17 06:30N 40°38' W 074°08'0 0.0
2018-Feb-17 06:00N 40°38' W 074°08'0 0.0
2018-Feb-17 05:30N 40°38' W 074°08'0 0.0
2018-Feb-17 05:00N 40°38' W 074°08'0 0.0
2018-Feb-17 04:31N 40°38' W 074°08'0 0.0
2018-Feb-17 04:00N 40°38' W 074°08'0 0.0
2018-Feb-17 03:30N 40°38' W 074°08'0 0.0
2018-Feb-17 03:00N 40°38' W 074°08'0 0.0
2018-Feb-17 02:30N 40°38' W 074°08'0 0.0
2018-Feb-17 02:00N 40°38' W 074°08'0 0.0
2018-Feb-17 01:30N 40°38' W 074°08'0 0.0
2018-Feb-17 01:00N 40°38' W 074°08'0 0.0
2018-Feb-17 00:30N 40°38' W 074°08'0 0.0
2018-Feb-17 00:00N 40°38' W 074°08'0 0.0
2018-Feb-16 23:30N 40°38' W 074°08'0 0.0
2018-Feb-16 23:00N 40°38' W 074°08'0 0.0
2018-Feb-16 22:30N 40°38' W 074°08'0 0.0
2018-Feb-16 22:00N 40°38' W 074°08'0 0.0
2018-Feb-16 21:30N 40°38' W 074°08'1 2.3
2018-Feb-16 21:01N 40°38' W 074°09'0 0.8
2018-Feb-16 20:30N 40°38' W 074°09'0 0.2
2018-Feb-16 20:00N 40°38' W 074°09'1 1.7
2018-Feb-16 19:30N 40°38' W 074°08'0 0.0
2018-Feb-16 19:00N 40°38' W 074°08'1 2.4
2018-Feb-16 18:30N 40°38' W 074°09'1 2.3
2018-Feb-16 17:59N 40°38' W 074°08'0 0.0
2018-Feb-16 17:30N 40°38' W 074°08'0 0.0
2018-Feb-16 17:00N 40°38' W 074°08'0 0.0
2018-Feb-16 16:25N 40°38' W 074°08'0 0.0
2018-Feb-16 16:00N 40°38' W 074°08'0 0.0
2018-Feb-16 15:30N 40°38' W 074°08'0 0.0
2018-Feb-16 15:00N 40°38' W 074°08'0 0.0
2018-Feb-16 14:30N 40°38' W 074°08'0 0.8
2018-Feb-16 14:00N 40°39' W 074°07'4 8.5
2018-Feb-16 13:31N 40°41' W 074°03'4 8.2
2018-Feb-16 13:00N 40°45' W 074°01'2 3.5
2018-Feb-16 12:31N 40°46' W 074°00'0 0.3
2018-Feb-16 12:00N 40°46' W 074°00'0 0.3
2018-Feb-16 11:31N 40°46' W 074°00'4 8.0
2018-Feb-16 11:00N 40°42' W 074°02'4 8.3
2018-Feb-16 10:30N 40°39' W 074°06'2 3.6
2018-Feb-16 10:00N 40°39' W 074°08'0 0.0
2018-Feb-16 09:30N 40°39' W 074°08'0 0.0
2018-Feb-16 09:00N 40°39' W 074°08'0 0.0
2018-Feb-16 08:30N 40°39' W 074°08'0 0.0
2018-Feb-16 08:00N 40°39' W 074°08'0 0.0
2018-Feb-16 07:30N 40°39' W 074°08'0 0.0
2018-Feb-16 06:59N 40°39' W 074°08'0 0.0
2018-Feb-16 06:29N 40°39' W 074°08'0 0.0
2018-Feb-16 06:00N 40°39' W 074°08'0 0.0
2018-Feb-16 05:30N 40°39' W 074°08'0 0.0
2018-Feb-16 04:59N 40°39' W 074°08'0 0.0
2018-Feb-16 04:30N 40°39' W 074°08'0 0.0
2018-Feb-16 04:01N 40°39' W 074°08'0 0.0
2018-Feb-16 03:29N 40°39' W 074°08'0 0.0
2018-Feb-16 03:00N 40°39' W 074°08'0 0.0
2018-Feb-16 02:30N 40°39' W 074°08'2 3.1
2018-Feb-16 02:00N 40°39' W 074°10'0 0.6
2018-Feb-16 01:29N 40°39' W 074°10'0 0.2
2018-Feb-16 01:00N 40°39' W 074°10'0 0.4
2018-Feb-16 00:30N 40°39' W 074°10'0 0.0
2018-Feb-16 00:00N 40°39' W 074°10'1 1.2
2018-Feb-15 23:30N 40°38' W 074°09'1 1.9
2018-Feb-15 23:00N 40°39' W 074°08'0 0.0
2018-Feb-15 22:30N 40°39' W 074°08'0 0.0
2018-Feb-15 22:00N 40°39' W 074°08'0 0.0
2018-Feb-15 21:30N 40°39' W 074°08'0 0.0
2018-Feb-15 21:00N 40°39' W 074°08'1 1.5
2018-Feb-15 20:30N 40°39' W 074°07'0 0.0
2018-Feb-15 20:00N 40°39' W 074°07'0 0.0
2018-Feb-15 19:30N 40°39' W 074°07'0 0.3
2018-Feb-15 19:00N 40°39' W 074°07'0 0.0
2018-Feb-15 18:29N 40°39' W 074°07'0 0.1
2018-Feb-15 18:01N 40°39' W 074°07'2 4.5
2018-Feb-15 17:30N 40°38' W 074°10'0 0.0
2018-Feb-15 17:00N 40°38' W 074°10'0 0.0
2018-Feb-15 16:29N 40°38' W 074°10'0 0.0
2018-Feb-15 16:00N 40°38' W 074°10'0 0.0
2018-Feb-15 15:30N 40°38' W 074°10'0 0.0
2018-Feb-15 14:59N 40°38' W 074°10'0 0.0
2018-Feb-15 14:30N 40°38' W 074°10'0 0.0
2018-Feb-15 14:00N 40°38' W 074°10'1 3.0
2018-Feb-15 13:30N 40°39' W 074°08'0 0.0
2018-Feb-15 13:00N 40°39' W 074°08'0 0.0
2018-Feb-15 12:29N 40°39' W 074°08'0 0.0
2018-Feb-15 12:00N 40°39' W 074°08'0 0.0
2018-Feb-15 11:30N 40°39' W 074°08'0 0.0
2018-Feb-15 11:00N 40°39' W 074°08'0 0.0
2018-Feb-15 10:30N 40°39' W 074°08'0 0.0
2018-Feb-15 10:00N 40°39' W 074°08'0 0.0
2018-Feb-15 09:30N 40°39' W 074°08'0 0.0
2018-Feb-15 08:59N 40°39' W 074°08'0 0.0
2018-Feb-15 08:30N 40°39' W 074°08'0 0.0
2018-Feb-15 08:00N 40°39' W 074°08'0 0.0
2018-Feb-15 07:30N 40°39' W 074°08'0 0.0
2018-Feb-15 07:00N 40°39' W 074°08'0 0.0
2018-Feb-15 06:30N 40°39' W 074°08'0 0.0
2018-Feb-15 06:00N 40°39' W 074°08'0 0.0
2018-Feb-15 05:30N 40°39' W 074°08'0 0.0
2018-Feb-15 05:00N 40°39' W 074°08'0 0.0
2018-Feb-15 04:29N 40°39' W 074°08'0 0.0
2018-Feb-15 04:00N 40°39' W 074°08'0 0.0
2018-Feb-15 03:29N 40°39' W 074°08'0 0.0
2018-Feb-15 03:00N 40°39' W 074°08'0 0.0
2018-Feb-15 02:30N 40°39' W 074°08'0 0.0
2018-Feb-15 02:00N 40°39' W 074°08'0 0.0
2018-Feb-15 01:31N 40°39' W 074°08'0 0.0
2018-Feb-15 01:00N 40°39' W 074°08'0 0.0
2018-Feb-15 00:30N 40°39' W 074°08'0 0.0
2018-Feb-15 00:00N 40°39' W 074°08'0 0.0
2018-Feb-14 23:30N 40°39' W 074°08'0 0.0
2018-Feb-14 23:00N 40°39' W 074°08'0 0.0
2018-Feb-14 22:30N 40°39' W 074°08'0 0.0
2018-Feb-14 22:00N 40°39' W 074°08'3 5.3
2018-Feb-14 21:30N 40°39' W 074°11'1 2.6
2018-Feb-14 21:01N 40°38' W 074°12'3 6.9
2018-Feb-14 20:31N 40°39' W 074°08'0 0.0
2018-Feb-14 20:00N 40°39' W 074°08'1 2.8
2018-Feb-14 19:29N 40°38' W 074°10'1 3.0
2018-Feb-14 19:00N 40°39' W 074°08'0 0.0
2018-Feb-14 18:30N 40°39' W 074°08'0 0.0
2018-Feb-14 17:59N 40°39' W 074°08'0 0.0
2018-Feb-14 17:30N 40°39' W 074°08'0 0.0
2018-Feb-14 17:00N 40°39' W 074°08'0 0.0
2018-Feb-14 16:30N 40°39' W 074°08'0 0.0
2018-Feb-14 16:00N 40°39' W 074°08'0 0.0
2018-Feb-14 15:29N 40°39' W 074°08'0 0.0
2018-Feb-14 15:00N 40°39' W 074°08'0 0.0
2018-Feb-14 14:30N 40°39' W 074°08'0 0.0
2018-Feb-14 13:58N 40°39' W 074°08'0 0.0
2018-Feb-14 13:30N 40°39' W 074°08'0 0.0
2018-Feb-14 13:00N 40°39' W 074°08'0 0.0
2018-Feb-14 12:30N 40°39' W 074°08'0 0.0
2018-Feb-14 12:00N 40°39' W 074°08'0 0.0
2018-Feb-14 11:30N 40°39' W 074°08'0 0.0
2018-Feb-14 11:00N 40°39' W 074°08'0 0.0
2018-Feb-14 10:30N 40°39' W 074°08'0 0.0
2018-Feb-14 10:00N 40°39' W 074°08'0 0.0
2018-Feb-14 09:30N 40°39' W 074°08'0 0.0
2018-Feb-14 09:00N 40°39' W 074°08'0 0.0
2018-Feb-14 08:30N 40°39' W 074°08'0 0.0
2018-Feb-14 08:00N 40°39' W 074°08'0 0.0
2018-Feb-14 07:30N 40°39' W 074°08'0 0.0
2018-Feb-14 07:00N 40°39' W 074°08'0 0.0
2018-Feb-14 06:31N 40°39' W 074°08'0 0.0
2018-Feb-14 06:00N 40°39' W 074°08'0 0.0
2018-Feb-14 05:30N 40°39' W 074°08'0 0.0
2018-Feb-14 05:00N 40°39' W 074°08'0 0.0
2018-Feb-14 04:29N 40°39' W 074°08'0 0.0
2018-Feb-14 04:00N 40°39' W 074°08'0 0.0
2018-Feb-14 03:30N 40°39' W 074°08'0 0.0
2018-Feb-14 03:00N 40°39' W 074°08'0 0.0
2018-Feb-14 02:30N 40°39' W 074°08'0 0.0
2018-Feb-14 01:59N 40°39' W 074°08'0 0.0
2018-Feb-14 01:15N 40°39' W 074°08'0 0.0
2018-Feb-14 00:57N 40°39' W 074°08'0 0.0
2018-Feb-14 00:30N 40°39' W 074°08'0 0.3
2018-Feb-14 00:00N 40°39' W 074°08'2 4.3
2018-Feb-13 23:31N 40°39' W 074°05'0 0.4
2018-Feb-13 23:00N 40°39' W 074°05'2 4.0
2018-Feb-13 22:30N 40°39' W 074°07'0 0.9
2018-Feb-13 22:00N 40°39' W 074°08'0 0.0
2018-Feb-13 21:30N 40°39' W 074°08'0 0.0
2018-Feb-13 21:00N 40°39' W 074°08'1 1.9
2018-Feb-13 20:30N 40°39' W 074°07'2 3.2
2018-Feb-13 20:01N 40°39' W 074°05'3 4.9
2018-Feb-13 19:30N 40°39' W 074°08'0 0.0
2018-Feb-13 19:00N 40°39' W 074°08'0 0.0
2018-Feb-13 18:30N 40°39' W 074°08'0 0.0
2018-Feb-13 18:00N 40°39' W 074°08'0 0.0
2018-Feb-13 17:29N 40°39' W 074°08'0 0.0
2018-Feb-13 17:00N 40°39' W 074°08'0 0.0
2018-Feb-13 16:30N 40°39' W 074°08'0 0.0
2018-Feb-13 15:59N 40°39' W 074°08'0 0.0
2018-Feb-13 15:30N 40°39' W 074°08'0 0.0
2018-Feb-13 15:00N 40°39' W 074°08'0 0.0
2018-Feb-13 14:30N 40°39' W 074°08'0 0.0
2018-Feb-13 14:00N 40°39' W 074°08'0 0.0
2018-Feb-13 13:30N 40°39' W 074°08'0 0.0
2018-Feb-13 12:57N 40°39' W 074°08'0 0.0
2018-Feb-13 12:28N 40°39' W 074°08'0 0.0
2018-Feb-13 11:51N 40°39' W 074°08'0 0.0
2018-Feb-13 11:30N 40°39' W 074°08'0 0.0
2018-Feb-13 10:36N 40°39' W 074°08'0 0.0
2018-Feb-13 10:29N 40°39' W 074°08'0 0.0
2018-Feb-13 09:53N 40°39' W 074°08'0 0.0
2018-Feb-13 09:29N 40°39' W 074°08'0 0.0
2018-Feb-13 08:43N 40°39' W 074°08'0 0.0
2018-Feb-13 08:31N 40°39' W 074°08'0 0.0
2018-Feb-13 07:37N 40°39' W 074°08'0 0.0
2018-Feb-13 07:15N 40°39' W 074°08'0 0.0
2018-Feb-13 06:58N 40°39' W 074°08'0 0.0
2018-Feb-13 06:28N 40°39' W 074°08'0 0.0
2018-Feb-13 05:57N 40°39' W 074°08'0 0.0
2018-Feb-13 05:29N 40°39' W 074°08'0 0.0
2018-Feb-13 04:59N 40°39' W 074°08'0 0.0
2018-Feb-13 04:27N 40°39' W 074°08'0 0.0
2018-Feb-13 03:59N 40°39' W 074°08'0 0.0
2018-Feb-13 03:27N 40°39' W 074°08'0 0.0
2018-Feb-13 02:59N 40°39' W 074°08'0 0.0
2018-Feb-13 02:30N 40°39' W 074°08'0 0.0
2018-Feb-13 01:21N 40°39' W 074°08'0 0.0
2018-Feb-12 23:37N 40°39' W 074°08'0 3.0
2018-Feb-12 23:29N 40°39' W 074°07'3 5.2
2018-Feb-12 23:00N 40°40' W 074°04'0 0.0
2018-Feb-12 22:28N 40°40' W 074°04'3 5.6
2018-Feb-12 22:01N 40°39' W 074°07'0 0.7
2018-Feb-12 21:31N 40°39' W 074°08'0 0.0
2018-Feb-12 20:59N 40°39' W 074°08'0 0.0
2018-Feb-12 20:29N 40°39' W 074°08'0 0.0
2018-Feb-12 19:59N 40°39' W 074°08'0 0.0
2018-Feb-12 19:30N 40°39' W 074°08'0 0.0
2018-Feb-12 19:00N 40°39' W 074°08'0 0.0
2018-Feb-12 18:30N 40°39' W 074°08'0 0.0
2018-Feb-12 18:00N 40°39' W 074°08'0 0.0
2018-Feb-12 17:30N 40°39' W 074°08'0 0.0
2018-Feb-12 17:00N 40°39' W 074°08'0 0.0
2018-Feb-12 16:31N 40°39' W 074°08'0 0.0
2018-Feb-12 15:59N 40°39' W 074°08'0 0.0
2018-Feb-12 15:30N 40°39' W 074°08'0 0.0
2018-Feb-12 15:00N 40°39' W 074°08'0 0.0
2018-Feb-12 14:30N 40°39' W 074°08'0 0.0
2018-Feb-12 14:00N 40°39' W 074°08'0 0.0
2018-Feb-12 13:30N 40°39' W 074°08'0 0.0
2018-Feb-12 13:00N 40°39' W 074°08'0 0.0
2018-Feb-12 12:31N 40°39' W 074°08'0 0.0
2018-Feb-12 12:00N 40°39' W 074°08'0 0.0
2018-Feb-12 11:31N 40°39' W 074°08'0 0.0
2018-Feb-12 11:01N 40°39' W 074°08'0 0.0
2018-Feb-12 10:30N 40°39' W 074°08'0 0.0
2018-Feb-12 10:00N 40°39' W 074°08'0 0.0
2018-Feb-12 09:30N 40°39' W 074°08'0 0.0
2018-Feb-12 08:59N 40°39' W 074°08'0 0.0
2018-Feb-12 08:30N 40°39' W 074°08'0 0.0
2018-Feb-12 08:00N 40°39' W 074°08'0 0.0
2018-Feb-12 07:30N 40°39' W 074°08'0 0.0
2018-Feb-12 07:00N 40°39' W 074°08'0 0.0
2018-Feb-12 06:29N 40°39' W 074°08'0 0.0
2018-Feb-12 06:00N 40°39' W 074°08'0 0.0
2018-Feb-12 05:30N 40°39' W 074°08'0 0.0
2018-Feb-12 04:48N 40°39' W 074°08'0 0.0
2018-Feb-12 04:24N 40°39' W 074°08'0 0.0
2018-Feb-12 03:59N 40°39' W 074°08'0 0.0
2018-Feb-12 03:29N 40°39' W 074°08'0 0.0
2018-Feb-12 02:59N 40°39' W 074°08'0 0.0
2018-Feb-12 02:30N 40°39' W 074°08'0 0.0
2018-Feb-12 01:59N 40°39' W 074°08'0 0.0
2018-Feb-12 01:30N 40°39' W 074°08'0 0.0
2018-Feb-12 00:56N 40°39' W 074°08'0 0.0
2018-Feb-12 00:30N 40°39' W 074°08'0 0.0
2018-Feb-12 00:00N 40°39' W 074°08'0 0.0
2018-Feb-11 23:30N 40°39' W 074°08'0 0.0
2018-Feb-11 23:00N 40°39' W 074°08'  

Dump ship's entire track history